LKW weather

Lekhwair Airport
Az Zahirah Governorate, Oman

Public forecast

Using degrees Celsius for public forecast. Weather courtesy of forecast.io.

METAR (pilot weather report)

Closest report is Al Ain International Airport, 88.4 nm (163.8 km) N. Retrieved 2019/04/23 17:00 UTC (29 minutes ago):

OMAL 231700Z 31010KT CAVOK 24/14 Q1015 NOSIG

TAF (pilot weather forecast)

Closest forecast is Al Ain International Airport, 88.4 nm (163.8 km) N. Retrieved 2019/04/23 12:00 UTC (5 hours ago):

TAF OMAL 231100Z 2312/2418 30012KT 8000 FEW045 PROB40 TEMPO 2312/2315 31018KT 3000 BLDU BECMG 2322/2400 22005KT BECMG 2403/2405 30012KT PROB40 TEMPO 2409/2415 30020KT 4000 BLDU